createdAt,value
2019-01-16T00:00:19.218Z,6.44
2019-01-16T00:01:19.236Z,6.48
2019-01-16T00:02:19.194Z,6.40
2019-01-16T00:03:19.480Z,6.47
2019-01-16T00:04:19.179Z,6.44
2019-01-16T00:05:19.163Z,6.47
2019-01-16T00:06:19.153Z,6.38
2019-01-16T00:07:19.168Z,6.47
2019-01-16T00:08:19.132Z,6.48
2019-01-16T00:09:19.120Z,6.48
2019-01-16T00:10:19.399Z,6.41
2019-01-16T00:11:19.099Z,6.46
2019-01-16T00:12:19.092Z,6.46
2019-01-16T00:13:19.951Z,6.36
2019-01-16T00:14:19.069Z,6.40
2019-01-16T00:15:19.058Z,6.38
2019-01-16T00:16:19.051Z,6.46
2019-01-16T00:17:19.313Z,6.44
2019-01-16T00:18:19.028Z,6.40
2019-01-16T00:19:19.046Z,6.47
2019-01-16T00:20:19.006Z,6.38
2019-01-16T00:21:18.994Z,6.46
2019-01-16T00:22:18.999Z,6.43
2019-01-16T00:23:18.973Z,6.32
2019-01-16T00:24:19.268Z,6.32
2019-01-16T00:25:18.984Z,6.38
2019-01-16T00:26:18.942Z,6.41
2019-01-16T00:27:18.938Z,6.30
2019-01-16T00:28:18.926Z,6.32
2019-01-16T00:29:18.914Z,6.40
2019-01-16T00:30:18.903Z,6.36
2019-01-16T00:31:18.926Z,6.33
2019-01-16T00:32:18.882Z,6.30
2019-01-16T00:33:18.869Z,6.40
2019-01-16T00:34:18.858Z,6.26
2019-01-16T00:35:18.849Z,6.30
2019-01-16T00:36:18.838Z,6.29
2019-01-16T00:37:19.149Z,6.32
2019-01-16T00:38:18.818Z,6.40
2019-01-16T00:39:18.863Z,6.41
2019-01-16T00:40:18.797Z,6.33
2019-01-16T00:41:18.786Z,6.33
2019-01-16T00:42:18.793Z,6.25
2019-01-16T00:43:18.797Z,6.30
2019-01-16T00:44:19.823Z,6.30
2019-01-16T00:45:18.749Z,6.33
2019-01-16T00:46:18.739Z,6.30
2019-01-16T00:47:18.722Z,6.33
2019-01-16T00:48:24.489Z,6.29
2019-01-16T00:49:19.763Z,6.33
2019-01-16T00:50:18.692Z,6.40
2019-01-16T00:51:18.975Z,6.33
2019-01-16T00:52:18.672Z,6.29
2019-01-16T00:53:18.663Z,6.29
2019-01-16T00:54:18.651Z,6.35
2019-01-16T00:55:18.684Z,6.33
2019-01-16T00:56:18.632Z,6.33
2019-01-16T00:57:18.621Z,6.40
2019-01-16T00:58:18.906Z,6.35
2019-01-16T00:59:18.636Z,6.32
2019-01-16T01:00:18.587Z,6.35
2019-01-16T01:01:18.605Z,6.46
2019-01-16T01:02:18.565Z,6.43
2019-01-16T01:03:18.560Z,6.36
2019-01-16T01:04:18.544Z,6.38
2019-01-16T01:05:18.819Z,6.32
2019-01-16T01:06:18.523Z,6.33
2019-01-16T01:07:18.563Z,6.28
2019-01-16T01:08:18.503Z,6.36
2019-01-16T01:09:18.494Z,6.30
2019-01-16T01:10:18.482Z,6.40
2019-01-16T01:11:18.470Z,6.43
2019-01-16T01:12:18.744Z,6.38
2019-01-16T01:13:18.530Z,6.35
2019-01-16T01:14:18.439Z,6.32
2019-01-16T01:15:18.429Z,6.35
2019-01-16T01:16:18.419Z,6.36
2019-01-16T01:17:18.409Z,6.33
2019-01-16T01:18:18.397Z,6.44
2019-01-16T01:19:18.711Z,6.40
2019-01-16T01:20:18.377Z,6.36
2019-01-16T01:21:18.366Z,6.43
2019-01-16T01:22:18.371Z,6.38
2019-01-16T01:23:18.346Z,6.47
2019-01-16T01:24:18.348Z,6.40
2019-01-16T01:25:18.610Z,6.41
2019-01-16T01:26:18.608Z,6.40
2019-01-16T01:27:18.324Z,6.50
2019-01-16T01:28:18.293Z,6.40
2019-01-16T01:29:18.284Z,6.46
2019-01-16T01:30:18.285Z,6.43
2019-01-16T01:31:18.305Z,6.43
2019-01-16T01:32:18.255Z,6.46
2019-01-16T01:33:18.531Z,6.41
2019-01-16T01:34:18.235Z,6.41
2019-01-16T01:35:18.231Z,6.47
2019-01-16T01:36:18.223Z,6.41
2019-01-16T01:37:18.397Z,6.46
2019-01-16T01:38:18.207Z,6.47
2019-01-16T01:39:18.179Z,6.48
2019-01-16T01:40:18.490Z,6.43
2019-01-16T01:41:18.157Z,6.43
2019-01-16T01:42:18.147Z,6.46
2019-01-16T01:43:18.210Z,6.48
2019-01-16T01:44:18.174Z,6.43
2019-01-16T01:45:18.117Z,6.44
2019-01-16T01:46:18.107Z,6.46
2019-01-16T01:47:18.397Z,6.44
2019-01-16T01:48:18.085Z,6.48
2019-01-16T01:49:18.117Z,6.48
2019-01-16T01:50:18.075Z,6.47
2019-01-16T01:51:18.088Z,6.43
2019-01-16T01:52:18.044Z,6.53
2019-01-16T01:53:18.043Z,6.47
2019-01-16T01:54:18.300Z,6.44
2019-01-16T01:55:18.845Z,6.50
2019-01-16T01:56:18.843Z,6.43
2019-01-16T01:57:19.699Z,6.41
2019-01-16T01:58:17.981Z,6.46
2019-01-16T01:59:17.970Z,6.44
2019-01-16T02:00:17.961Z,6.44
2019-01-16T02:01:18.168Z,6.43
2019-01-16T02:02:17.938Z,6.47
2019-01-16T02:03:17.927Z,6.36
2019-01-16T02:04:17.923Z,6.40
2019-01-16T02:05:17.906Z,6.40
2019-01-16T02:06:17.897Z,6.44
2019-01-16T02:07:18.279Z,6.47
2019-01-16T02:08:17.875Z,6.48
2019-01-16T02:09:17.868Z,6.40
2019-01-16T02:10:17.856Z,6.43
2019-01-16T02:11:17.844Z,6.46
2019-01-16T02:12:17.836Z,6.41
2019-01-16T02:13:17.884Z,6.43
2019-01-16T02:14:17.822Z,6.43
2019-01-16T02:15:17.801Z,6.41
2019-01-16T02:16:17.792Z,6.41
2019-01-16T02:17:17.782Z,6.48
2019-01-16T02:18:17.782Z,6.51
2019-01-16T02:19:18.100Z,6.44
2019-01-16T02:20:17.750Z,6.44
2019-01-16T02:21:17.737Z,6.46
2019-01-16T02:22:17.730Z,6.51
2019-01-16T02:23:17.721Z,6.51
2019-01-16T02:24:17.707Z,6.47
2019-01-16T02:25:17.737Z,6.46
2019-01-16T02:26:17.691Z,6.58
2019-01-16T02:27:17.675Z,6.53
2019-01-16T02:28:17.665Z,6.47
2019-01-16T02:29:17.654Z,6.47
2019-01-16T02:30:17.662Z,6.47
2019-01-16T02:31:17.672Z,6.53
2019-01-16T02:32:17.624Z,6.48
2019-01-16T02:33:17.613Z,6.58
2019-01-16T02:34:17.604Z,6.59
2019-01-16T02:35:17.593Z,6.56
2019-01-16T02:36:17.587Z,6.62
2019-01-16T02:37:17.902Z,6.59
2019-01-16T02:38:17.562Z,6.56
2019-01-16T02:39:17.550Z,6.65
2019-01-16T02:40:17.551Z,6.62
2019-01-16T02:41:17.532Z,6.66
2019-01-16T02:42:17.517Z,6.54
2019-01-16T02:43:17.542Z,6.61
2019-01-16T02:44:17.794Z,6.59
2019-01-16T02:45:17.490Z,6.65
2019-01-16T02:46:17.488Z,6.58
2019-01-16T02:47:17.466Z,6.58
2019-01-16T02:48:17.455Z,6.61
2019-01-16T02:49:17.499Z,6.59
2019-01-16T02:50:17.441Z,6.56
2019-01-16T02:51:17.732Z,6.65
2019-01-16T02:52:17.423Z,6.54
2019-01-16T02:53:17.402Z,6.65
2019-01-16T02:54:17.391Z,6.54
2019-01-16T02:55:17.472Z,6.62
2019-01-16T02:56:17.370Z,6.50
2019-01-16T02:57:17.387Z,6.48
2019-01-16T02:58:17.652Z,6.54
2019-01-16T02:59:17.342Z,6.54
2019-01-16T03:01:39.025Z,6.56
2019-01-16T03:02:38.935Z,6.51
2019-01-16T03:03:38.922Z,6.56
2019-01-16T03:04:38.910Z,6.54
2019-01-16T03:05:38.902Z,6.53
2019-01-16T03:06:38.912Z,6.44
2019-01-16T03:07:39.223Z,6.54
2019-01-16T03:08:38.871Z,6.51
2019-01-16T03:09:38.931Z,6.54
2019-01-16T03:10:38.875Z,6.53
2019-01-16T03:11:38.836Z,6.50
2019-01-16T03:12:38.827Z,6.47
2019-01-16T03:13:38.851Z,6.58
2019-01-16T03:14:39.109Z,6.48
2019-01-16T03:15:38.796Z,6.56
2019-01-16T03:16:38.784Z,6.54
2019-01-16T03:17:38.791Z,6.51
2019-01-16T03:18:38.766Z,6.47
2019-01-16T03:19:38.816Z,6.62
2019-01-16T03:20:38.906Z,6.50
2019-01-16T03:21:39.017Z,6.58
2019-01-16T03:22:38.720Z,6.61
2019-01-16T03:23:38.709Z,6.59
2019-01-16T03:24:38.699Z,6.56
2019-01-16T03:25:38.725Z,6.59
2019-01-16T03:26:38.677Z,6.59
2019-01-16T03:27:38.669Z,6.65
2019-01-16T03:28:38.934Z,6.51
2019-01-16T03:29:38.644Z,6.56
2019-01-16T03:30:38.636Z,6.61
2019-01-16T03:31:38.659Z,6.48
2019-01-16T03:32:38.618Z,6.56
2019-01-16T03:33:38.606Z,6.61
2019-01-16T03:34:38.591Z,6.53
2019-01-16T03:35:38.859Z,6.58
2019-01-16T03:36:38.575Z,6.63
2019-01-16T03:37:38.631Z,6.63
2019-01-16T03:38:38.549Z,6.61
2019-01-16T03:39:38.541Z,6.61
2019-01-16T03:40:38.528Z,6.47
2019-01-16T03:41:38.535Z,6.56
2019-01-16T03:42:38.782Z,6.59
2019-01-16T03:43:38.624Z,6.66
2019-01-16T03:44:38.530Z,6.58
2019-01-16T03:45:38.479Z,6.54
2019-01-16T03:46:38.468Z,6.56
2019-01-16T03:47:38.457Z,6.58
2019-01-16T03:48:38.443Z,6.46
2019-01-16T03:49:38.751Z,6.62
2019-01-16T03:50:38.426Z,6.59
2019-01-16T03:51:38.412Z,6.56
2019-01-16T03:52:38.401Z,6.50
2019-01-16T03:53:38.390Z,6.51
2019-01-16T03:54:38.382Z,6.61
2019-01-16T03:55:38.563Z,6.51
2019-01-16T03:56:38.665Z,6.54
2019-01-16T03:57:38.352Z,6.63
2019-01-16T03:58:38.338Z,6.56
2019-01-16T03:59:38.329Z,6.66
2019-01-16T04:00:38.317Z,6.58
2019-01-16T04:01:38.342Z,6.56
2019-01-16T04:02:38.296Z,6.46
2019-01-16T04:03:38.582Z,6.51
2019-01-16T04:04:38.281Z,6.62
2019-01-16T04:05:38.265Z,6.56
2019-01-16T04:06:38.252Z,6.63
2019-01-16T04:07:38.281Z,6.53
2019-01-16T04:08:38.230Z,6.48
2019-01-16T04:09:38.229Z,6.59
2019-01-16T04:10:38.497Z,6.62
2019-01-16T04:11:38.199Z,6.66
2019-01-16T04:12:38.192Z,6.66
2019-01-16T04:13:38.414Z,6.66
2019-01-16T04:14:38.192Z,6.62
2019-01-16T04:15:38.166Z,6.58
2019-01-16T04:16:38.152Z,6.68
2019-01-16T04:17:38.414Z,6.66
2019-01-16T04:18:38.135Z,6.54
2019-01-16T04:19:38.148Z,6.56
2019-01-16T04:20:38.105Z,6.59
2019-01-16T04:21:38.129Z,6.62
2019-01-16T04:22:38.085Z,6.63
2019-01-16T04:23:38.076Z,6.65
2019-01-16T04:24:38.349Z,6.69
2019-01-16T04:25:38.086Z,6.58
2019-01-16T04:26:38.732Z,6.59
2019-01-16T04:27:38.039Z,6.65
2019-01-16T04:28:38.019Z,6.56
2019-01-16T04:29:38.008Z,6.61
2019-01-16T04:30:37.996Z,6.59
2019-01-16T04:31:38.066Z,6.61
2019-01-16T04:32:37.976Z,6.54
2019-01-16T04:33:37.964Z,6.62
2019-01-16T04:34:37.955Z,6.71
2019-01-16T04:35:37.945Z,6.68
2019-01-16T04:36:37.934Z,6.62
2019-01-16T04:37:38.241Z,6.59
2019-01-16T04:38:37.911Z,6.62
2019-01-16T04:39:37.906Z,6.62
2019-01-16T04:40:37.968Z,6.61
2019-01-16T04:41:37.879Z,6.66
2019-01-16T04:42:37.874Z,6.62
2019-01-16T04:43:37.897Z,6.62
2019-01-16T04:44:38.136Z,6.65
2019-01-16T04:45:37.838Z,6.61
2019-01-16T04:46:37.826Z,6.59
2019-01-16T04:47:37.817Z,6.72
2019-01-16T04:48:37.804Z,6.61
2019-01-16T04:49:37.868Z,6.71
2019-01-16T04:50:37.784Z,6.62
2019-01-16T04:51:38.050Z,6.73
2019-01-16T04:52:37.763Z,6.72
2019-01-16T04:53:37.752Z,6.73
2019-01-16T04:54:37.765Z,6.61
2019-01-16T04:55:37.762Z,6.68
2019-01-16T04:56:37.720Z,6.76
2019-01-16T04:57:37.711Z,6.71
2019-01-16T04:58:38.004Z,6.76
2019-01-16T04:59:37.687Z,6.72
2019-01-16T05:00:37.678Z,6.69
2019-01-16T05:01:37.703Z,6.65
2019-01-16T05:02:37.657Z,6.69
2019-01-16T05:03:37.652Z,6.69
2019-01-16T05:04:37.638Z,6.79
2019-01-16T05:05:37.907Z,6.77
2019-01-16T05:06:37.619Z,6.72
2019-01-16T05:07:37.673Z,6.71
2019-01-16T05:08:37.596Z,6.76
2019-01-16T05:09:37.597Z,6.71
2019-01-16T05:10:37.587Z,6.72
2019-01-16T05:11:37.562Z,6.76
2019-01-16T05:12:37.551Z,6.72
2019-01-16T05:13:37.573Z,6.76
2019-01-16T05:14:37.530Z,6.77
2019-01-16T05:15:37.523Z,6.73
2019-01-16T05:16:37.511Z,6.68
2019-01-16T05:17:37.500Z,6.73
2019-01-16T05:18:37.793Z,6.73
2019-01-16T05:19:38.744Z,6.73
2019-01-16T05:20:37.478Z,6.73
2019-01-16T05:21:37.459Z,6.69
2019-01-16T05:22:37.474Z,6.76
2019-01-16T05:23:37.435Z,6.76
2019-01-16T05:24:37.425Z,6.76
2019-01-16T05:25:37.891Z,6.68
2019-01-16T05:26:37.406Z,6.72
2019-01-16T05:27:37.394Z,6.71
2019-01-16T05:28:37.384Z,6.69
2019-01-16T05:29:37.372Z,6.71
2019-01-16T05:30:37.363Z,6.69
2019-01-16T05:31:37.668Z,6.72
2019-01-16T05:32:37.343Z,6.77
2019-01-16T05:33:37.329Z,6.76
2019-01-16T05:34:37.321Z,6.71
2019-01-16T05:35:37.309Z,6.72
2019-01-16T05:36:37.341Z,6.68
2019-01-16T05:37:37.324Z,6.68
2019-01-16T05:38:37.280Z,6.72
2019-01-16T05:39:37.269Z,6.79
2019-01-16T05:40:37.255Z,6.73
2019-01-16T05:41:37.247Z,6.73
2019-01-16T05:42:37.250Z,6.69
2019-01-16T05:43:37.555Z,6.73
2019-01-16T05:44:37.216Z,6.61
2019-01-16T05:45:37.206Z,6.72
2019-01-16T05:46:37.192Z,6.71
2019-01-16T05:47:37.182Z,6.73
2019-01-16T05:48:37.174Z,6.77
2019-01-16T05:49:37.201Z,6.73
2019-01-16T05:50:37.162Z,6.69
2019-01-16T05:51:37.138Z,6.76
2019-01-16T05:52:37.127Z,6.76
2019-01-16T05:53:37.117Z,6.71
2019-01-16T05:54:37.113Z,6.80
2019-01-16T05:55:37.408Z,6.72
2019-01-16T05:56:37.088Z,6.72
2019-01-16T05:57:37.075Z,6.73
2019-01-16T05:58:37.067Z,6.69
2019-01-16T05:59:37.055Z,6.68
2019-01-16T06:00:37.043Z,6.71
2019-01-16T06:01:37.103Z,6.71
2019-01-16T06:02:37.034Z,6.72
2019-01-16T06:03:37.013Z,6.71
2019-01-16T06:04:37.002Z,6.71
2019-01-16T06:05:37.713Z,6.73
2019-01-16T06:06:36.978Z,6.72
2019-01-16T06:07:37.010Z,6.79
2019-01-16T06:08:36.976Z,6.68
2019-01-16T06:09:37.709Z,6.83
2019-01-16T06:10:36.940Z,6.81
2019-01-16T06:11:36.939Z,6.68
2019-01-16T06:12:36.915Z,6.84
2019-01-16T06:13:36.937Z,6.77
2019-01-16T06:14:36.896Z,6.71
2019-01-16T06:15:36.885Z,6.77
2019-01-16T06:16:36.875Z,6.72
2019-01-16T06:17:36.863Z,6.81
2019-01-16T06:18:36.852Z,6.77
2019-01-16T06:19:37.019Z,6.81
2019-01-16T06:20:36.850Z,6.81
2019-01-16T06:21:36.823Z,6.69
2019-01-16T06:22:36.818Z,6.81
2019-01-16T06:23:36.803Z,6.86
2019-01-16T06:24:36.791Z,6.73
2019-01-16T06:25:37.168Z,6.87
2019-01-16T06:26:36.767Z,6.84
2019-01-16T06:27:36.780Z,6.89
2019-01-16T06:28:36.749Z,6.89
2019-01-16T06:29:36.756Z,6.86
2019-01-16T06:30:36.724Z,6.81
2019-01-16T06:31:36.953Z,6.79
2019-01-16T06:32:36.705Z,6.83
2019-01-16T06:33:36.701Z,6.71
2019-01-16T06:34:36.700Z,6.73
2019-01-16T06:35:36.699Z,6.80
2019-01-16T06:36:36.661Z,6.71
2019-01-16T06:37:38.242Z,6.69
2019-01-16T06:38:36.661Z,6.77
2019-01-16T06:39:36.630Z,6.72
2019-01-16T06:40:36.622Z,6.71
2019-01-16T06:41:36.659Z,6.69
2019-01-16T06:42:36.598Z,6.68
2019-01-16T06:43:36.647Z,6.73
2019-01-16T06:44:36.878Z,6.71
2019-01-16T06:45:36.567Z,6.71
2019-01-16T06:46:36.556Z,6.69
2019-01-16T06:47:36.549Z,6.66
2019-01-16T06:48:36.555Z,6.76
2019-01-16T06:49:36.809Z,6.72
2019-01-16T06:50:36.518Z,6.63
2019-01-16T06:51:36.545Z,6.63
2019-01-16T06:52:36.534Z,6.65
2019-01-16T06:53:36.521Z,6.61
2019-01-16T06:54:36.479Z,6.58
2019-01-16T06:55:36.530Z,6.66
2019-01-16T06:56:36.452Z,6.59
2019-01-16T06:57:36.775Z,6.56
2019-01-16T06:58:36.436Z,6.66
2019-01-16T06:59:36.424Z,6.63
2019-01-16T07:00:36.437Z,6.47
2019-01-16T07:01:36.431Z,6.56
2019-01-16T07:02:36.390Z,6.59
2019-01-16T07:03:36.386Z,6.61
2019-01-16T07:04:36.701Z,6.63
2019-01-16T07:05:36.358Z,6.61
2019-01-16T07:06:36.363Z,6.61
2019-01-16T07:07:36.377Z,6.65
2019-01-16T07:08:36.340Z,6.51
2019-01-16T07:09:38.026Z,6.56
2019-01-16T07:10:36.308Z,6.59
2019-01-16T07:11:36.296Z,6.51
2019-01-16T07:12:36.287Z,6.63
2019-01-16T07:13:36.320Z,6.59
2019-01-16T07:14:36.266Z,6.59
2019-01-16T07:15:36.251Z,6.53
2019-01-16T07:16:36.243Z,6.61
2019-01-16T07:17:36.267Z,6.47
2019-01-16T07:18:36.221Z,6.50
2019-01-16T07:19:36.267Z,6.51
2019-01-16T07:20:36.211Z,6.47
2019-01-16T07:21:36.199Z,6.41
2019-01-16T07:22:36.176Z,6.43
2019-01-16T07:23:36.619Z,6.53
2019-01-16T07:24:36.165Z,6.48
2019-01-16T07:25:36.239Z,6.43
2019-01-16T07:26:36.144Z,6.53
2019-01-16T07:27:36.127Z,6.47
2019-01-16T07:28:36.122Z,6.44
2019-01-16T07:29:36.104Z,6.44
2019-01-16T07:30:36.094Z,6.44
2019-01-16T07:31:36.151Z,6.44
2019-01-16T07:32:36.073Z,6.44
2019-01-16T07:33:36.063Z,6.40
2019-01-16T07:34:36.049Z,6.36
2019-01-16T07:35:36.043Z,6.43
2019-01-16T07:36:36.028Z,6.35
2019-01-16T07:37:37.695Z,6.30
2019-01-16T07:38:36.006Z,6.33
2019-01-16T07:39:35.995Z,6.33
2019-01-16T07:40:35.985Z,6.35
2019-01-16T07:41:37.456Z,6.32
2019-01-16T07:42:35.983Z,6.30
2019-01-16T07:43:36.078Z,6.32
2019-01-16T07:44:35.943Z,6.38
2019-01-16T07:45:36.695Z,6.29
2019-01-16T07:46:35.929Z,6.25
2019-01-16T07:47:35.921Z,6.30
2019-01-16T07:48:36.249Z,6.22
2019-01-16T07:49:36.039Z,6.32
2019-01-16T07:50:36.655Z,6.30
2019-01-16T07:51:35.868Z,6.33
2019-01-16T07:52:35.867Z,6.32
2019-01-16T07:53:35.849Z,6.36
2019-01-16T07:54:35.836Z,6.38
2019-01-16T07:55:35.873Z,6.36
2019-01-16T07:56:35.817Z,6.36
2019-01-16T07:57:35.808Z,6.43
2019-01-16T07:58:35.806Z,6.41
2019-01-16T07:59:35.784Z,6.47
2019-01-16T08:00:35.782Z,6.46
2019-01-16T08:01:35.798Z,6.50
2019-01-16T08:02:35.760Z,6.47
2019-01-16T08:03:35.741Z,6.44
2019-01-16T08:04:35.735Z,6.47
2019-01-16T08:05:35.719Z,6.46
2019-01-16T08:06:35.733Z,6.47
2019-01-16T08:07:35.744Z,6.50
2019-01-16T08:08:35.739Z,6.51
2019-01-16T08:09:35.689Z,6.47
2019-01-16T08:10:36.389Z,6.48
2019-01-16T08:11:35.753Z,6.54
2019-01-16T08:12:35.713Z,6.50
2019-01-16T08:13:36.029Z,6.46
2019-01-16T08:14:35.635Z,6.47
2019-01-16T08:15:35.617Z,6.54
2019-01-16T08:16:35.604Z,6.50
2019-01-16T08:17:35.616Z,6.47
2019-01-16T08:18:35.595Z,6.47
2019-01-16T08:19:36.045Z,6.46
2019-01-16T08:20:35.560Z,6.48
2019-01-16T08:21:35.556Z,6.51
2019-01-16T08:22:35.538Z,6.46
2019-01-16T08:23:35.528Z,6.46
2019-01-16T08:24:35.767Z,6.48
2019-01-16T08:25:35.906Z,6.59
2019-01-16T08:26:35.505Z,6.53
2019-01-16T08:27:35.518Z,6.50
2019-01-16T08:28:35.474Z,6.51
2019-01-16T08:29:35.480Z,6.53
2019-01-16T08:30:35.456Z,6.53
2019-01-16T08:31:35.512Z,6.63
2019-01-16T08:32:35.517Z,6.61
2019-01-16T08:33:35.432Z,6.66
2019-01-16T08:34:35.429Z,6.63
2019-01-16T08:35:35.405Z,6.65
2019-01-16T08:36:35.399Z,6.46
2019-01-16T08:37:35.411Z,6.59
2019-01-16T08:38:35.368Z,6.59
2019-01-16T08:39:35.445Z,6.61
2019-01-16T08:40:35.346Z,6.56
2019-01-16T08:41:35.382Z,6.48
2019-01-16T08:42:35.331Z,6.43
2019-01-16T08:43:36.039Z,6.50
2019-01-16T08:44:35.438Z,6.53
2019-01-16T08:45:35.407Z,6.61
2019-01-16T08:46:35.287Z,6.59
2019-01-16T08:47:35.357Z,6.62
2019-01-16T08:48:35.363Z,6.56
2019-01-16T08:49:35.316Z,6.61
2019-01-16T08:50:35.256Z,6.56
2019-01-16T08:51:35.236Z,6.53
2019-01-16T08:52:35.239Z,6.51
2019-01-16T08:53:35.498Z,6.51
2019-01-16T08:54:35.231Z,6.46
2019-01-16T08:55:35.362Z,6.44
2019-01-16T08:56:35.223Z,6.48
2019-01-16T08:57:35.232Z,6.56
2019-01-16T08:58:35.162Z,6.53
2019-01-16T08:59:35.553Z,6.58
2019-01-16T09:00:35.133Z,6.48
2019-01-16T09:01:35.702Z,6.61
2019-01-16T09:02:35.116Z,6.71
2019-01-16T09:03:35.101Z,6.62
2019-01-16T09:04:35.091Z,6.56
2019-01-16T09:05:35.087Z,6.63
2019-01-16T09:06:35.081Z,6.62
2019-01-16T09:07:35.088Z,6.68
2019-01-16T09:08:35.099Z,6.63
2019-01-16T09:09:35.038Z,6.58
2019-01-16T09:10:35.681Z,6.59
2019-01-16T09:11:35.025Z,6.59
2019-01-16T09:12:35.005Z,6.59
2019-01-16T09:13:35.032Z,6.65
2019-01-16T09:14:35.693Z,6.69
2019-01-16T09:15:35.248Z,6.69
2019-01-16T09:16:34.979Z,6.76
2019-01-16T09:17:34.991Z,6.69
2019-01-16T09:18:34.941Z,6.73
2019-01-16T09:19:35.456Z,6.81
2019-01-16T09:20:39.976Z,6.76
2019-01-16T09:21:35.938Z,6.90
2019-01-16T09:22:34.898Z,6.94
2019-01-16T09:23:35.657Z,6.81
2019-01-16T09:24:34.880Z,6.76
2019-01-16T09:25:34.895Z,6.79
2019-01-16T09:26:35.229Z,6.71
2019-01-16T09:27:34.865Z,6.72
2019-01-16T09:28:34.846Z,6.71
2019-01-16T09:29:35.115Z,6.73
2019-01-16T09:30:34.824Z,6.73
2019-01-16T09:31:34.858Z,6.80
2019-01-16T09:32:34.792Z,6.79
2019-01-16T09:33:35.162Z,6.83
2019-01-16T09:34:34.771Z,6.87
2019-01-16T09:35:34.787Z,6.76
2019-01-16T09:36:34.750Z,6.87
2019-01-16T09:37:34.836Z,6.91
2019-01-16T09:38:34.733Z,6.91
2019-01-16T09:39:34.730Z,6.84
2019-01-16T09:40:34.714Z,6.84
2019-01-16T09:41:34.696Z,6.97
2019-01-16T09:42:34.697Z,6.89
2019-01-16T09:43:35.595Z,6.83
2019-01-16T09:44:34.701Z,6.94
2019-01-16T09:45:34.671Z,6.91
2019-01-16T09:46:34.657Z,6.89
2019-01-16T09:47:34.649Z,6.91
2019-01-16T09:48:34.738Z,6.94
2019-01-16T09:49:34.718Z,6.90
2019-01-16T09:50:34.606Z,6.99
2019-01-16T09:51:34.612Z,6.98
2019-01-16T09:52:36.656Z,7.02
2019-01-16T09:53:34.738Z,6.98
2019-01-16T09:54:34.817Z,7.13
2019-01-16T09:55:34.710Z,7.01
2019-01-16T09:56:34.644Z,7.01
2019-01-16T09:57:34.529Z,7.01
2019-01-16T09:58:34.533Z,7.05
2019-01-16T09:59:34.515Z,6.94
2019-01-16T10:00:34.499Z,7.01
2019-01-16T10:01:34.704Z,7.01
2019-01-16T10:02:34.505Z,7.13
2019-01-16T10:03:34.478Z,7.07
2019-01-16T10:04:34.791Z,7.12
2019-01-16T10:05:34.446Z,7.08
2019-01-16T10:06:34.547Z,7.08
2019-01-16T10:07:34.501Z,7.08
2019-01-16T10:08:34.417Z,7.12
2019-01-16T10:09:34.410Z,7.16
2019-01-16T10:10:34.647Z,7.09
2019-01-16T10:11:35.178Z,7.12
2019-01-16T10:12:34.373Z,7.12
2019-01-16T10:13:34.653Z,7.09
2019-01-16T10:14:34.389Z,7.04
2019-01-16T10:15:34.343Z,7.12
2019-01-16T10:16:34.337Z,6.97
2019-01-16T10:17:34.326Z,7.08
2019-01-16T10:18:34.324Z,7.02
2019-01-16T10:19:34.416Z,7.02
2019-01-16T10:20:34.289Z,7.02
2019-01-16T10:21:34.278Z,7.04
2019-01-16T10:22:34.283Z,7.07
2019-01-16T10:23:34.258Z,6.98
2019-01-16T10:24:34.314Z,6.99
2019-01-16T10:25:34.317Z,7.04
2019-01-16T10:26:34.233Z,7.04
2019-01-16T10:27:34.352Z,6.99
2019-01-16T10:28:34.282Z,6.98
2019-01-16T10:29:34.463Z,6.98
2019-01-16T10:30:34.235Z,7.04
2019-01-16T10:31:34.308Z,7.01
2019-01-16T10:32:34.437Z,6.99
2019-01-16T10:33:34.239Z,7.16
2019-01-16T10:34:34.600Z,7.09
2019-01-16T10:35:34.129Z,7.09
2019-01-16T10:36:34.119Z,7.13
2019-01-16T10:37:35.074Z,7.01
2019-01-16T10:38:34.199Z,7.17
2019-01-16T10:39:34.342Z,7.07
2019-01-16T10:40:34.671Z,7.09
2019-01-16T10:41:34.121Z,6.99
2019-01-16T10:42:34.070Z,6.99
2019-01-16T10:43:34.169Z,6.98
2019-01-16T10:44:34.385Z,7.04
2019-01-16T10:45:34.227Z,7.02
2019-01-16T10:46:37.152Z,6.99
2019-01-16T10:47:34.167Z,6.97
2019-01-16T10:48:34.590Z,6.98
2019-01-16T10:49:34.651Z,7.02
2019-01-16T10:50:34.235Z,6.95
2019-01-16T10:51:34.251Z,6.98
2019-01-16T10:52:34.685Z,6.94
2019-01-16T10:53:34.104Z,7.04
2019-01-16T10:54:34.074Z,6.95
2019-01-16T10:55:34.760Z,7.02
2019-01-16T10:56:34.040Z,7.04
2019-01-16T10:57:34.144Z,7.05
2019-01-16T10:58:34.413Z,7.13
2019-01-16T10:59:34.630Z,7.19
2019-01-16T11:00:33.871Z,7.15
2019-01-16T11:01:34.010Z,6.98
2019-01-16T11:02:33.844Z,7.04
2019-01-16T11:03:33.897Z,7.04
2019-01-16T11:04:33.837Z,7.04
2019-01-16T11:05:33.811Z,7.04
2019-01-16T11:06:33.800Z,7.05
2019-01-16T11:07:34.808Z,7.09
2019-01-16T11:08:33.928Z,7.04
2019-01-16T11:09:33.777Z,7.05
2019-01-16T11:10:33.759Z,7.09
2019-01-16T11:11:33.754Z,7.15
2019-01-16T11:12:33.739Z,7.09
2019-01-16T11:13:33.861Z,7.07
2019-01-16T11:14:33.741Z,7.13
2019-01-16T11:15:33.718Z,7.01
2019-01-16T11:16:33.746Z,7.09
2019-01-16T11:17:33.716Z,7.01
2019-01-16T11:18:33.776Z,7.07
2019-01-16T11:19:33.878Z,7.02
2019-01-16T11:20:33.654Z,6.97
2019-01-16T11:21:34.626Z,6.97
2019-01-16T11:22:33.636Z,6.97
2019-01-16T11:23:34.130Z,6.91
2019-01-16T11:24:33.640Z,6.91
2019-01-16T11:25:33.752Z,6.97
2019-01-16T11:26:33.606Z,7.02
2019-01-16T11:27:33.595Z,6.89
2019-01-16T11:28:33.627Z,6.99
2019-01-16T11:29:33.578Z,6.97
2019-01-16T11:30:33.599Z,6.97
2019-01-16T11:31:33.704Z,6.98
2019-01-16T11:32:33.954Z,6.83
2019-01-16T11:33:33.521Z,6.83
2019-01-16T11:34:33.502Z,6.76
2019-01-16T11:35:34.513Z,6.83
2019-01-16T11:36:33.505Z,6.83
2019-01-16T11:37:33.722Z,6.89
2019-01-16T11:38:33.561Z,6.83
2019-01-16T11:39:33.547Z,6.81
2019-01-16T11:40:34.104Z,6.71
2019-01-16T11:41:33.528Z,6.79
2019-01-16T11:42:33.434Z,6.77
2019-01-16T11:43:33.649Z,6.86
2019-01-16T11:44:33.401Z,6.71
2019-01-16T11:45:33.394Z,6.79
2019-01-16T11:46:33.377Z,6.77
2019-01-16T11:47:33.462Z,6.73
2019-01-16T11:48:33.353Z,6.69
2019-01-16T11:49:33.469Z,6.73
2019-01-16T11:50:33.334Z,6.76
2019-01-16T11:51:33.775Z,6.71
2019-01-16T11:52:33.312Z,6.69
2019-01-16T11:53:33.715Z,6.79
2019-01-16T11:54:33.482Z,6.69
2019-01-16T11:55:33.847Z,6.69
2019-01-16T11:56:33.308Z,6.61
2019-01-16T11:57:33.763Z,6.69
2019-01-16T11:58:33.420Z,6.68
2019-01-16T11:59:33.496Z,6.73
2019-01-16T12:00:33.539Z,6.72
2019-01-16T12:01:33.338Z,6.51
2019-01-16T12:02:38.505Z,6.53
2019-01-16T12:03:34.386Z,6.69
2019-01-16T12:04:33.199Z,6.76
2019-01-16T12:05:33.212Z,6.69
2019-01-16T12:06:33.454Z,6.72
2019-01-16T12:07:33.516Z,6.77
2019-01-16T12:08:33.977Z,6.72
2019-01-16T12:09:33.180Z,6.73
2019-01-16T12:10:33.260Z,6.79
2019-01-16T12:11:33.725Z,6.59
2019-01-16T12:12:33.113Z,6.72
2019-01-16T12:13:33.380Z,6.69
2019-01-16T12:14:33.096Z,6.73
2019-01-16T12:15:33.224Z,6.72
2019-01-16T12:16:33.177Z,6.81
2019-01-16T12:17:33.133Z,6.90
2019-01-16T12:18:33.102Z,6.84
2019-01-16T12:19:33.109Z,6.87
2019-01-16T12:20:33.653Z,6.97
2019-01-16T12:21:34.316Z,6.97
2019-01-16T12:22:33.012Z,6.79
2019-01-16T12:23:33.471Z,6.73
2019-01-16T12:24:33.125Z,6.76
2019-01-16T12:25:33.538Z,6.90
2019-01-16T12:26:32.959Z,6.84
2019-01-16T12:27:32.944Z,6.95
2019-01-16T12:28:33.322Z,6.95
2019-01-16T12:29:32.926Z,6.90
2019-01-16T12:30:32.914Z,6.89
2019-01-16T12:31:32.965Z,6.89
2019-01-16T12:32:33.314Z,6.90
2019-01-16T12:33:33.172Z,6.84
2019-01-16T12:34:33.113Z,6.86
2019-01-16T12:35:33.340Z,6.90
2019-01-16T12:36:33.270Z,6.81
2019-01-16T12:37:32.993Z,6.72
2019-01-16T12:38:32.829Z,6.73
2019-01-16T12:39:32.854Z,6.79
2019-01-16T12:40:34.459Z,6.79
2019-01-16T12:41:33.904Z,6.80
2019-01-16T12:42:32.779Z,6.81
2019-01-16T12:43:32.805Z,6.81
2019-01-16T12:44:32.817Z,6.73
2019-01-16T12:45:33.755Z,6.83
2019-01-16T12:46:32.872Z,6.80
2019-01-16T12:47:32.839Z,6.72
2019-01-16T12:48:32.768Z,6.73
2019-01-16T12:49:32.996Z,6.69
2019-01-16T12:50:32.786Z,6.61
2019-01-16T12:51:33.777Z,6.69
2019-01-16T12:52:32.888Z,6.58
2019-01-16T12:53:32.771Z,6.56
2019-01-16T12:54:32.775Z,6.61
2019-01-16T12:55:33.228Z,6.66
2019-01-16T12:56:32.814Z,6.59
2019-01-16T12:57:32.683Z,6.62
2019-01-16T12:58:32.651Z,6.66
2019-01-16T12:59:32.631Z,6.59
2019-01-16T13:00:32.591Z,6.54
2019-01-16T13:01:33.672Z,6.63
2019-01-16T13:02:32.572Z,6.56
2019-01-16T13:03:32.586Z,6.66
2019-01-16T13:04:32.576Z,6.62
2019-01-16T13:05:32.536Z,6.65
2019-01-16T13:06:32.530Z,6.51
2019-01-16T13:07:32.936Z,6.46
2019-01-16T13:08:32.527Z,6.48
2019-01-16T13:09:32.518Z,6.47
2019-01-16T13:10:32.481Z,6.56
2019-01-16T13:11:32.501Z,6.61
2019-01-16T13:12:32.461Z,6.62
2019-01-16T13:13:32.615Z,6.47
2019-01-16T13:14:32.437Z,6.46
2019-01-16T13:15:32.454Z,6.47
2019-01-16T13:16:32.416Z,6.53
2019-01-16T13:17:32.411Z,6.48
2019-01-16T13:18:32.401Z,6.48
2019-01-16T13:19:32.427Z,6.46